Time;durP1;ratioP1;P1;durP2;ratioP2;P2;SDS_P1;SDS_P2;PMS_P1;PMS_P2;Temp;Humidity;BMP_temperature;BMP_pressure;BME280_temperature;BME280_humidity;BME280_pressure;Samples;Min_cycle;Max_cycle;Signal;HPM_P1;HPM_P2
2022/01/19 00:00:44;;;;;;;51.47;29.10;;;5.30;99.90;;;;;;5135914;27;20047;-76
2022/01/19 00:03:10;;;;;;;60.45;28.80;;;5.30;99.90;;;;;;5134935;27;20118;-76
2022/01/19 00:05:36;;;;;;;53.08;29.13;;;5.30;99.90;;;;;;5136080;27;20051;-77
2022/01/19 00:08:02;;;;;;;59.22;29.77;;;5.30;99.90;;;;;;5135724;27;20502;-76
2022/01/19 00:10:28;;;;;;;48.78;27.75;;;5.30;99.90;;;;;;5135149;27;20032;-76
2022/01/19 00:12:55;;;;;;;52.70;29.15;;;5.30;99.90;;;;;;5135697;27;20095;-76
2022/01/19 00:15:22;;;;;;;55.30;28.27;;;5.30;99.90;;;;;;5135218;27;20055;-76
2022/01/19 00:17:48;;;;;;;54.97;28.35;;;5.30;99.90;;;;;;5135178;27;20177;-76
2022/01/19 00:20:14;;;;;;;54.42;28.15;;;5.30;99.90;;;;;;5135130;27;20043;-76
2022/01/19 00:22:40;;;;;;;51.08;29.60;;;5.30;99.90;;;;;;5135350;27;20413;-76
2022/01/19 00:25:07;;;;;;;49.90;28.38;;;5.30;99.90;;;;;;5134793;27;20122;-75
2022/01/19 00:27:34;;;;;;;50.03;29.05;;;5.30;99.90;;;;;;5134811;27;20124;-76
2022/01/19 00:29:59;;;;;;;53.30;30.13;;;5.30;99.90;;;;;;5135492;27;20122;-76
2022/01/19 00:32:26;;;;;;;53.60;29.83;;;5.30;99.90;;;;;;5134828;27;20118;-76
2022/01/19 00:34:52;;;;;;;59.90;30.30;;;5.30;99.90;;;;;;5135318;27;20046;-76
2022/01/19 00:37:18;;;;;;;54.55;29.40;;;5.30;99.90;;;;;;5134255;27;20039;-76
2022/01/19 00:39:43;;;;;;;54.63;29.08;;;5.30;99.90;;;;;;5134992;27;20035;-76
2022/01/19 00:42:09;;;;;;;52.85;30.17;;;5.30;99.90;;;;;;5134940;27;20104;-76
2022/01/19 00:44:35;;;;;;;53.50;29.77;;;5.30;99.90;;;;;;5133858;27;20047;-76
2022/01/19 00:47:01;;;;;;;58.05;30.35;;;5.30;99.90;;;;;;5134432;27;20054;-77
2022/01/19 00:49:26;;;;;;;56.90;28.92;;;5.30;99.90;;;;;;5134372;27;20045;-76
2022/01/19 00:51:52;;;;;;;56.25;31.35;;;5.30;99.90;;;;;;5134681;27;20082;-76
2022/01/19 00:54:18;;;;;;;59.00;30.35;;;5.20;99.90;;;;;;5134073;27;20054;-75
2022/01/19 00:56:43;;;;;;;53.35;29.83;;;5.20;99.90;;;;;;5134906;27;20047;-76
2022/01/19 00:59:09;;;;;;;60.10;30.55;;;5.10;99.90;;;;;;5134670;27;20039;-76
2022/01/19 01:01:35;;;;;;;62.63;31.20;;;5.00;99.90;;;;;;5134467;27;20046;-76
2022/01/19 01:04:01;;;;;;;60.25;30.40;;;5.00;99.90;;;;;;5135282;27;20130;-76
2022/01/19 01:06:26;;;;;;;56.35;30.13;;;4.90;99.90;;;;;;5134076;27;20047;-76
2022/01/19 01:08:52;;;;;;;52.08;29.88;;;4.80;99.90;;;;;;5134438;27;20039;-76
2022/01/19 01:11:18;;;;;;;51.00;28.92;;;4.80;99.90;;;;;;5133613;27;20039;-72
2022/01/19 01:18:57;;;;;;;58.83;29.48;;;4.40;99.90;;;;;;5134487;27;20047;-76
2022/01/19 01:21:23;;;;;;;59.05;29.08;;;4.30;99.90;;;;;;5133456;27;20070;-76
2022/01/19 01:23:49;;;;;;;57.15;30.42;;;4.20;99.90;;;;;;5134025;27;20120;-76
2022/01/19 01:26:14;;;;;;;60.08;29.38;;;4.10;99.90;;;;;;5133964;27;20046;-76
2022/01/19 01:28:40;;;;;;;69.55;30.88;;;4.10;99.90;;;;;;5134275;27;20086;-76
2022/01/19 01:31:10;;;;;;;67.47;32.92;;;3.90;99.90;;;;;;5134099;27;20043;-76
2022/01/19 01:33:37;;;;;;;70.88;32.55;;;3.90;99.90;;;;;;5133548;27;20047;-76
2022/01/19 01:36:03;;;;;;;72.78;32.50;;;3.90;99.90;;;;;;5132794;27;20458;-76
2022/01/19 01:38:29;;;;;;;76.22;31.60;;;3.80;99.90;;;;;;5133490;27;20127;-76
2022/01/19 01:40:55;;;;;;;77.93;32.10;;;3.80;99.90;;;;;;5133118;27;20129;-76
2022/01/19 01:43:22;;;;;;;84.15;33.47;;;3.70;99.90;;;;;;5133892;27;20051;-71
2022/01/19 01:45:52;;;;;;;82.93;33.65;;;3.60;99.90;;;;;;5133034;27;20047;-75
2022/01/19 01:48:21;;;;;;;75.82;32.75;;;3.60;99.90;;;;;;5114255;28;20052;-76
2022/01/19 01:53:34;;;;;;;94.63;35.03;;;3.50;99.90;;;;;;5133180;27;20502;-76
2022/01/19 01:56:16;;;;;;;92.97;34.95;;;3.40;99.90;;;;;;5132405;27;20047;-77
2022/01/19 01:58:47;;;;;;;99.78;36.53;;;3.40;99.90;;;;;;5133234;27;20600;-76
2022/01/19 02:01:13;;;;;;;93.03;35.30;;;3.30;99.90;;;;;;5132457;27;20043;-77
2022/01/19 02:03:41;;;;;;;99.28;36.50;;;3.20;99.90;;;;;;5133037;27;20043;-76
2022/01/19 02:21:36;;;;;;;102.65;37.30;;;3.10;99.90;;;;;;5132239;27;20096;-76
2022/01/19 02:22:13;;;;;;;105.80;37.65;;;3.00;99.90;;;;;;5133462;27;20511;-77
2022/01/19 02:24:44;;;;;;;104.18;37.97;;;3.00;99.90;;;;;;5133070;27;20043;-76
2022/01/19 02:30:36;;;;;;;130.15;41.67;;;2.90;99.90;;;;;;5133364;27;20052;-76
2022/01/19 02:41:05;;;;;;;206.90;43.35;;;2.90;99.90;;;;;;5132826;28;20043;-75
2022/01/19 02:43:31;;;;;;;185.23;39.33;;;2.80;99.90;;;;;;5132381;27;20384;-76
2022/01/19 02:51:25;;;;;;;209.25;39.38;;;2.80;99.90;;;;;;5132422;28;20510;-77
2022/01/19 02:53:51;;;;;;;160.65;36.40;;;2.70;99.90;;;;;;5134435;27;20039;-76
2022/01/19 02:56:28;;;;;;;150.48;36.42;;;2.70;99.90;;;;;;5137183;27;20043;-77
2022/01/19 02:59:03;;;;;;;153.50;38.20;;;2.60;99.90;;;;;;5136331;27;20605;-77
2022/01/19 03:09:27;;;;;;;164.55;39.58;;;2.40;99.90;;;;;;5137275;27;20050;-77
2022/01/19 03:11:53;;;;;;;152.25;37.63;;;2.50;99.90;;;;;;5135119;27;20039;-77
2022/01/19 03:14:19;;;;;;;117.32;35.60;;;2.40;99.90;;;;;;5136495;27;20143;-77
2022/01/19 03:16:45;;;;;;;102.05;32.85;;;2.40;99.90;;;;;;5136012;27;20496;-77
2022/01/19 03:19:12;;;;;;;146.25;36.88;;;2.40;99.90;;;;;;5135534;27;20055;-77
2022/01/19 03:21:40;;;;;;;99.10;31.00;;;2.40;99.90;;;;;;5135910;27;20381;-76
2022/01/19 03:24:06;;;;;;;104.97;32.33;;;2.30;99.90;;;;;;5136696;27;20082;-77
2022/01/19 03:26:32;;;;;;;102.88;31.08;;;2.30;99.90;;;;;;5136083;27;20043;-75
2022/01/19 03:28:58;;;;;;;90.65;31.92;;;2.20;99.90;;;;;;5136220;27;20035;-77
2022/01/19 03:31:24;;;;;;;73.35;29.23;;;2.20;99.90;;;;;;5136336;27;20043;-77
2022/01/19 03:33:49;;;;;;;76.75;29.83;;;2.10;99.90;;;;;;5135847;27;20043;-78
2022/01/19 03:36:17;;;;;;;77.45;30.17;;;2.00;99.90;;;;;;5135828;27;20079;-78
2022/01/19 03:38:43;;;;;;;74.30;29.30;;;2.00;99.90;;;;;;5136105;27;20039;-78
2022/01/19 03:41:09;;;;;;;69.32;28.95;;;2.00;99.90;;;;;;5136162;27;20051;-77
2022/01/19 03:43:35;;;;;;;63.88;28.63;;;1.90;99.90;;;;;;5135845;27;20039;-77
2022/01/19 03:46:02;;;;;;;69.03;29.75;;;2.00;99.90;;;;;;5135289;27;20424;-76
2022/01/19 03:48:54;;;;;;;77.45;31.73;;;1.90;99.90;;;;;;5135758;27;20092;-77
2022/01/19 03:51:20;;;;;;;81.18;32.75;;;1.90;99.90;;;;;;5136517;27;20051;-77
2022/01/19 03:53:47;;;;;;;106.95;33.28;;;1.90;99.90;;;;;;5135307;27;20071;-77
2022/01/19 03:56:13;;;;;;;59.00;25.52;;;1.90;99.90;;;;;;5136413;27;20436;-76
2022/01/19 03:58:38;;;;;;;53.47;26.33;;;1.80;99.90;;;;;;5135505;27;20039;-73
2022/01/19 04:01:05;;;;;;;68.35;28.13;;;1.70;99.90;;;;;;5135712;27;20040;-77
2022/01/19 04:06:23;;;;;;;78.72;27.95;;;1.60;99.90;;;;;;5103898;27;20055;-77
2022/01/19 04:08:49;;;;;;;55.35;26.98;;;1.50;99.90;;;;;;5134750;27;20043;-77
2022/01/19 04:11:17;;;;;;;60.55;27.58;;;1.50;99.90;;;;;;5135985;27;20369;-77
2022/01/19 04:13:59;;;;;;;75.93;31.05;;;1.50;99.90;;;;;;5133958;27;20070;-77
2022/01/19 04:16:25;;;;;;;79.68;33.22;;;1.50;99.90;;;;;;5135379;27;20062;-77
2022/01/19 04:18:59;;;;;;;77.28;32.50;;;1.50;99.90;;;;;;5134697;27;20043;-77
2022/01/19 04:21:24;;;;;;;92.47;35.92;;;1.60;99.90;;;;;;5135915;27;20495;-78
2022/01/19 04:23:50;;;;;;;89.30;34.80;;;1.60;99.90;;;;;;5134895;27;20039;-77
2022/01/19 04:26:16;;;;;;;76.88;33.28;;;1.60;99.90;;;;;;5135745;27;20043;-78
2022/01/19 04:28:41;;;;;;;84.75;35.03;;;1.60;99.90;;;;;;5133176;27;20188;-73
2022/01/19 04:31:07;;;;;;;99.85;34.72;;;1.60;99.90;;;;;;5135087;27;20039;-77
2022/01/19 04:33:33;;;;;;;91.53;30.90;;;1.60;99.90;;;;;;5168600;27;20065;-78
2022/01/19 04:36:19;;;;;;;82.85;32.13;;;1.50;99.90;;;;;;5135062;27;20047;-77
2022/01/19 04:39:18;;;;;;;83.47;30.55;;;1.40;99.90;;;;;;5134368;27;20073;-71
2022/01/19 05:06:14;;;;;;;116.10;43.42;;;1.20;99.90;;;;;;5134268;27;20126;-79
2022/01/19 05:09:27;;;;;;;112.47;39.90;;;1.20;99.90;;;;;;5134814;27;20051;-79
2022/01/19 05:14:16;;;;;;;113.40;45.75;;;1.20;99.90;;;;;;5134527;27;20130;-80
2022/01/19 05:16:42;;;;;;;135.38;46.00;;;1.20;99.90;;;;;;5131444;27;20118;-77
2022/01/19 05:19:08;;;;;;;106.70;38.97;;;1.20;99.90;;;;;;5133171;27;20035;-79
2022/01/19 05:21:34;;;;;;;123.22;43.13;;;1.20;99.90;;;;;;5133460;27;20040;-80
2022/01/19 05:24:04;;;;;;;116.68;43.92;;;1.20;99.90;;;;;;5134038;27;20108;-79
2022/01/19 05:26:31;;;;;;;132.02;50.95;;;1.20;99.90;;;;;;5134169;27;20054;-79
2022/01/19 05:28:57;;;;;;;151.98;56.00;;;1.20;99.90;;;;;;5133745;27;20046;-79
2022/01/19 05:31:23;;;;;;;165.60;57.72;;;1.30;99.90;;;;;;5133977;27;20053;-80
2022/01/19 05:33:49;;;;;;;175.90;64.05;;;1.30;99.90;;;;;;5134365;27;20472;-80
2022/01/19 05:36:15;;;;;;;165.98;59.42;;;1.30;99.90;;;;;;5133873;27;20095;-80
2022/01/19 05:38:40;;;;;;;165.65;63.40;;;1.40;99.90;;;;;;5133613;27;20143;-80
2022/01/19 05:41:06;;;;;;;171.40;64.00;;;1.40;99.90;;;;;;5132580;27;20047;-80
2022/01/19 05:43:32;;;;;;;193.23;63.83;;;1.50;99.90;;;;;;5134764;27;20051;-81
2022/01/19 05:45:57;;;;;;;206.45;65.00;;;1.50;99.90;;;;;;5133338;27;20051;-80
2022/01/19 05:48:24;;;;;;;196.85;64.20;;;1.50;99.90;;;;;;5133556;27;20047;-80
2022/01/19 05:50:49;;;;;;;190.27;64.25;;;1.50;99.90;;;;;;5134240;27;20122;-80
2022/01/19 05:53:16;;;;;;;185.32;62.75;;;1.50;99.90;;;;;;5133545;27;20126;-80
2022/01/19 05:55:43;;;;;;;199.18;66.00;;;1.40;99.90;;;;;;5134079;27;20054;-80
2022/01/19 05:58:09;;;;;;;190.15;64.70;;;1.50;99.90;;;;;;5132801;27;20128;-80
2022/01/19 06:00:34;;;;;;;179.07;65.43;;;1.50;99.90;;;;;;5133356;27;20043;-81
2022/01/19 06:03:01;;;;;;;165.48;67.40;;;1.50;99.90;;;;;;5133357;27;20049;-81
2022/01/19 06:05:27;;;;;;;158.55;68.00;;;1.60;99.90;;;;;;5133921;27;20039;-81
2022/01/19 06:08:09;;;;;;;169.45;68.25;;;1.60;99.90;;;;;;5133768;27;20537;-81
2022/01/19 06:10:44;;;;;;;168.63;68.47;;;1.70;99.90;;;;;;5133386;27;20043;-81
2022/01/19 06:13:12;;;;;;;198.85;75.25;;;1.80;99.90;;;;;;5133071;27;20043;-81
2022/01/19 06:15:37;;;;;;;218.65;78.28;;;1.90;99.90;;;;;;5133486;27;20433;-81
2022/01/19 06:18:03;;;;;;;222.85;80.22;;;1.90;99.90;;;;;;5133233;27;20039;-81
2022/01/19 06:20:29;;;;;;;232.23;79.28;;;1.90;99.90;;;;;;5133625;27;20531;-81
2022/01/19 06:22:55;;;;;;;211.57;77.07;;;2.00;99.90;;;;;;5133666;27;20092;-82
2022/01/19 06:25:21;;;;;;;206.35;76.18;;;2.00;99.90;;;;;;5132694;27;20055;-82
2022/01/19 06:27:47;;;;;;;197.15;75.63;;;2.10;99.90;;;;;;5131898;27;20065;-82
2022/01/19 06:30:13;;;;;;;193.90;77.60;;;2.10;99.90;;;;;;5132915;27;20084;-82
2022/01/19 06:32:40;;;;;;;183.02;76.45;;;2.10;99.90;;;;;;5133532;27;20089;-82
2022/01/19 06:35:09;;;;;;;171.70;76.80;;;2.20;99.90;;;;;;5132399;27;20046;-82
2022/01/19 06:37:35;;;;;;;166.18;74.30;;;2.20;99.90;;;;;;5133132;28;20046;-83
2022/01/19 06:40:04;;;;;;;139.40;69.88;;;2.30;99.90;;;;;;5132845;27;20039;-74
2022/01/19 06:42:29;;;;;;;126.03;70.15;;;2.30;99.90;;;;;;5133422;27;20035;-82
2022/01/19 06:44:55;;;;;;;115.40;66.40;;;2.40;99.90;;;;;;5133134;28;20387;-81
2022/01/19 06:47:21;;;;;;;109.32;65.80;;;2.40;99.90;;;;;;5132558;27;20227;-82
2022/01/19 06:49:47;;;;;;;106.53;64.80;;;2.40;99.90;;;;;;5133337;28;20488;-83
2022/01/19 06:52:13;;;;;;;97.82;60.90;;;2.50;99.90;;;;;;5133062;28;20044;-82
2022/01/19 06:54:38;;;;;;;95.55;61.00;;;2.50;99.90;;;;;;5133355;27;20071;-83
2022/01/19 06:57:04;;;;;;;94.45;59.95;;;2.40;99.90;;;;;;5132079;28;20058;-75
2022/01/19 06:59:30;;;;;;;94.50;62.30;;;2.40;99.90;;;;;;5166835;27;20373;-82
2022/01/19 07:01:56;;;;;;;87.28;61.20;;;2.50;99.90;;;;;;5133170;27;20050;-82
2022/01/19 07:04:21;;;;;;;87.97;59.88;;;2.50;99.90;;;;;;5132646;28;20047;-82
2022/01/19 07:06:47;;;;;;;83.18;60.42;;;2.50;99.90;;;;;;5132967;27;20043;-81
2022/01/19 07:09:13;;;;;;;88.82;61.72;;;2.50;99.90;;;;;;5132009;28;20063;-81
2022/01/19 07:11:39;;;;;;;82.88;60.95;;;2.60;99.90;;;;;;5132652;28;20079;-82
2022/01/19 07:14:05;;;;;;;81.90;59.63;;;2.60;99.90;;;;;;5132910;27;20054;-73
2022/01/19 07:16:31;;;;;;;81.82;59.78;;;2.60;99.90;;;;;;5133066;27;20106;-82
2022/01/19 07:18:57;;;;;;;77.72;58.95;;;2.70;99.90;;;;;;5132295;28;20487;-82
2022/01/19 07:21:23;;;;;;;77.78;57.85;;;2.70;99.90;;;;;;5132488;27;20040;-82
2022/01/19 07:23:49;;;;;;;74.10;58.13;;;2.80;99.90;;;;;;5132763;27;20066;-82
2022/01/19 07:26:15;;;;;;;70.20;58.38;;;2.80;99.90;;;;;;5132734;28;20079;-81
2022/01/19 07:28:41;;;;;;;72.40;56.97;;;2.80;99.90;;;;;;5132426;27;20058;-82
2022/01/19 07:31:06;;;;;;;67.65;55.17;;;2.80;99.90;;;;;;5132587;27;20043;-73
2022/01/19 07:33:32;;;;;;;68.65;55.13;;;2.80;99.90;;;;;;5131865;27;20097;-81
2022/01/19 07:35:58;;;;;;;66.22;54.45;;;3.00;99.90;;;;;;5132953;27;20111;-81
2022/01/19 07:38:26;;;;;;;67.18;53.38;;;2.90;99.90;;;;;;5132398;27;20046;-81
2022/01/19 07:40:52;;;;;;;66.10;53.88;;;2.90;99.90;;;;;;5136696;27;20046;-81
2022/01/19 07:43:18;;;;;;;64.13;52.50;;;2.90;99.90;;;;;;5134144;27;20395;-81
2022/01/19 07:45:44;;;;;;;65.68;53.60;;;3.00;99.90;;;;;;5136004;27;20046;-80
2022/01/19 07:48:10;;;;;;;66.85;54.70;;;3.00;99.90;;;;;;5136289;27;20209;-73
2022/01/19 07:50:37;;;;;;;63.17;52.83;;;3.00;99.90;;;;;;5136448;27;20043;-81
2022/01/19 07:53:03;;;;;;;62.60;52.60;;;3.00;99.90;;;;;;5136164;27;20458;-81
2022/01/19 07:55:29;;;;;;;66.43;53.05;;;3.00;99.90;;;;;;5135629;27;20035;-81
2022/01/19 07:57:55;;;;;;;65.22;54.05;;;3.00;99.90;;;;;;5136051;27;20123;-80
2022/01/19 08:00:21;;;;;;;65.13;52.80;;;3.10;99.90;;;;;;5135651;27;20445;-80
2022/01/19 08:02:49;;;;;;;65.80;55.20;;;3.10;99.90;;;;;;5136089;27;20043;-81
2022/01/19 08:05:16;;;;;;;63.72;53.80;;;3.10;99.90;;;;;;5135344;27;20055;-79
2022/01/19 08:07:42;;;;;;;65.75;54.28;;;3.20;99.90;;;;;;5136088;27;20039;-80
2022/01/19 08:10:10;;;;;;;65.53;53.58;;;3.20;99.90;;;;;;5133851;27;20058;-80
2022/01/19 08:12:37;;;;;;;68.97;54.65;;;3.20;99.90;;;;;;5135506;27;20103;-80
2022/01/19 08:15:04;;;;;;;68.57;54.33;;;3.20;99.90;;;;;;5135353;27;20424;-80
2022/01/19 08:17:30;;;;;;;67.80;55.03;;;3.20;99.90;;;;;;5135062;27;20062;-79
2022/01/19 08:19:56;;;;;;;67.25;54.17;;;3.20;99.90;;;;;;5135609;27;20109;-80
2022/01/19 08:22:23;;;;;;;67.57;53.60;;;3.30;99.90;;;;;;5117047;27;20054;-80
2022/01/19 08:24:50;;;;;;;67.70;53.25;;;3.30;99.90;;;;;;5135810;27;20039;-79
2022/01/19 08:27:16;;;;;;;71.32;53.95;;;3.30;99.90;;;;;;5134269;27;20093;-73
2022/01/19 08:29:42;;;;;;;71.55;54.92;;;3.40;99.90;;;;;;5135790;27;20445;-84
2022/01/19 08:32:08;;;;;;;70.70;54.05;;;3.40;99.90;;;;;;5135377;27;20039;-84
2022/01/19 08:34:34;;;;;;;72.10;54.40;;;3.50;99.90;;;;;;5134769;27;20796;-83
2022/01/19 08:37:00;;;;;;;71.93;53.72;;;3.50;99.90;;;;;;5134833;27;20539;-82
2022/01/19 08:39:27;;;;;;;71.40;54.03;;;3.50;99.90;;;;;;5134845;27;20130;-83
2022/01/19 08:41:54;;;;;;;73.82;54.63;;;3.50;99.90;;;;;;5135480;27;20079;-82
2022/01/19 08:44:21;;;;;;;71.25;54.03;;;3.50;99.90;;;;;;5134884;27;20053;-81
2022/01/19 08:46:47;;;;;;;72.00;54.13;;;3.60;99.90;;;;;;5126043;27;20082;-78
2022/01/19 08:49:15;;;;;;;72.55;52.03;;;3.60;99.90;;;;;;5110994;27;20445;-82
2022/01/19 08:51:41;;;;;;;70.53;52.45;;;3.60;99.90;;;;;;5131824;27;20107;-82
2022/01/19 08:54:07;;;;;;;76.30;53.63;;;3.60;99.90;;;;;;5132279;27;20043;-77
2022/01/19 08:56:35;;;;;;;72.47;53.10;;;3.60;99.90;;;;;;5131013;27;20537;-83
2022/01/19 08:59:01;;;;;;;76.47;54.45;;;3.60;99.90;;;;;;5131245;27;20074;-83
2022/01/19 09:01:26;;;;;;;72.63;53.08;;;3.60;99.90;;;;;;5131702;27;20518;-79
2022/01/19 09:03:52;;;;;;;72.32;54.05;;;3.70;99.90;;;;;;5130493;27;20070;-83
2022/01/19 09:06:19;;;;;;;71.80;52.50;;;3.70;99.90;;;;;;5132160;27;20047;-75
2022/01/19 09:08:45;;;;;;;74.40;53.42;;;3.70;99.90;;;;;;5131738;27;20571;-78
2022/01/19 09:11:12;;;;;;;74.78;53.63;;;3.70;99.90;;;;;;5131284;27;20134;-82
2022/01/19 09:13:38;;;;;;;73.43;53.15;;;3.70;99.90;;;;;;5131552;27;20591;-82
2022/01/19 09:16:05;;;;;;;71.20;53.67;;;3.70;99.90;;;;;;5131227;27;20043;-78
2022/01/19 09:18:31;;;;;;;73.88;53.08;;;3.80;99.90;;;;;;5130727;27;20058;-82
2022/01/19 09:20:57;;;;;;;72.80;52.80;;;3.80;99.90;;;;;;5132060;27;20040;-83
2022/01/19 09:23:23;;;;;;;74.28;53.78;;;3.90;99.90;;;;;;5131082;27;20050;-74
2022/01/19 09:25:48;;;;;;;73.75;54.53;;;3.80;99.90;;;;;;5130435;27;20488;-80
2022/01/19 09:28:14;;;;;;;79.22;56.13;;;3.80;99.90;;;;;;5130818;27;20039;-81
2022/01/19 09:30:41;;;;;;;78.20;54.50;;;3.90;99.90;;;;;;5130831;27;21017;-82
2022/01/19 09:33:18;;;;;;;75.43;53.42;;;3.90;99.90;;;;;;5130303;27;20047;-79
2022/01/19 09:38:19;;;;;;;76.65;55.13;;;3.90;99.90;;;;;;5130630;27;20062;-81
2022/01/19 09:40:45;;;;;;;78.38;55.05;;;3.90;99.90;;;;;;5130752;27;20043;-82
2022/01/19 09:43:11;;;;;;;83.45;56.17;;;4.00;99.90;;;;;;5135123;27;20126;-82
2022/01/19 09:45:37;;;;;;;85.47;57.60;;;4.00;99.90;;;;;;5150633;27;20494;-81
2022/01/19 09:48:03;;;;;;;80.68;56.72;;;4.00;99.90;;;;;;5146758;27;20055;-82
2022/01/19 09:50:29;;;;;;;82.03;54.72;;;4.00;99.90;;;;;;5132440;27;20487;-81
2022/01/19 09:52:55;;;;;;;83.00;56.67;;;4.10;99.90;;;;;;5131046;27;20043;-75
2022/01/19 09:55:21;;;;;;;85.65;57.83;;;4.10;99.90;;;;;;5130406;27;20043;-81
2022/01/19 09:57:47;;;;;;;81.25;55.65;;;4.10;99.90;;;;;;5134968;27;20087;-81
2022/01/19 10:00:13;;;;;;;86.38;56.13;;;4.10;99.90;;;;;;5138463;27;20092;-76
2022/01/19 10:02:38;;;;;;;86.38;56.80;;;4.10;99.90;;;;;;5136536;27;20038;-83
2022/01/19 10:05:07;;;;;;;86.57;57.50;;;4.20;99.90;;;;;;5139509;27;20061;-81
2022/01/19 10:07:33;;;;;;;88.13;57.22;;;4.10;99.90;;;;;;5129543;27;20104;-81
2022/01/19 10:10:06;;;;;;;86.00;56.05;;;4.20;99.90;;;;;;5133428;27;20391;-83
2022/01/19 10:18:15;;;;;;;89.78;59.25;;;4.20;99.90;;;;;;5130020;27;20051;-80
2022/01/19 10:20:42;;;;;;;92.05;59.85;;;4.20;99.90;;;;;;5128181;27;20053;-80
2022/01/19 10:23:36;;;;;;;94.78;59.85;;;4.30;99.90;;;;;;5129589;27;20058;-80
2022/01/19 10:26:04;;;;;;;95.93;60.65;;;4.30;99.90;;;;;;5130936;27;20046;-81
2022/01/19 10:28:29;;;;;;;90.63;58.00;;;4.30;99.90;;;;;;5130117;27;20126;-73
2022/01/19 10:30:59;;;;;;;96.22;59.90;;;4.30;99.90;;;;;;5129704;27;20126;-82
2022/01/19 10:33:25;;;;;;;100.75;62.42;;;4.30;99.90;;;;;;5130418;27;20035;-80
2022/01/19 10:35:50;;;;;;;100.15;59.65;;;4.30;99.90;;;;;;5129600;27;20043;-79
2022/01/19 10:38:19;;;;;;;97.43;59.17;;;4.30;99.90;;;;;;5130076;28;20047;-81
2022/01/19 10:41:07;;;;;;;100.95;61.15;;;4.30;99.90;;;;;;5130215;28;20043;-80
2022/01/19 10:43:38;;;;;;;103.60;61.35;;;4.40;99.90;;;;;;5128623;28;20043;-79
2022/01/19 10:46:25;;;;;;;102.80;60.47;;;4.40;99.90;;;;;;5129030;28;20047;-80
2022/01/19 10:49:05;;;;;;;106.93;60.30;;;4.40;99.90;;;;;;5129921;27;20126;-73
2022/01/19 10:51:39;;;;;;;106.15;61.22;;;4.40;99.90;;;;;;5130760;27;20051;-73
2022/01/19 10:54:20;;;;;;;102.00;59.83;;;4.30;99.90;;;;;;5129353;28;20085;-80
2022/01/19 10:56:48;;;;;;;104.50;60.78;;;4.30;99.90;;;;;;5129402;27;20578;-75
2022/01/19 10:59:17;;;;;;;101.32;59.83;;;4.30;99.90;;;;;;5130513;27;20031;-81
2022/01/19 11:01:55;;;;;;;101.13;60.72;;;4.30;99.90;;;;;;5129573;27;20043;-80
2022/01/19 11:04:23;;;;;;;100.20;60.15;;;4.30;99.90;;;;;;5129922;27;20069;-81
2022/01/19 11:06:54;;;;;;;101.43;58.55;;;4.30;99.90;;;;;;5129428;27;20043;-79
2022/01/19 11:09:23;;;;;;;;;;;4.30;99.90;;;;;;5130019;27;20031;-81
2022/01/19 11:11:50;;;;;;;100.35;58.85;;;4.30;99.90;;;;;;5129848;27;20384;-81
2022/01/19 11:14:16;;;;;;;97.13;58.42;;;4.20;99.90;;;;;;5131596;27;20369;-77
2022/01/19 11:16:42;;;;;;;98.78;58.45;;;4.20;99.90;;;;;;5132320;27;20076;-81
2022/01/19 11:19:10;;;;;;;93.47;57.70;;;4.20;99.90;;;;;;5134474;27;20035;-81
2022/01/19 11:21:51;;;;;;;96.63;58.65;;;4.20;99.90;;;;;;5133603;27;20069;-74
2022/01/19 11:24:38;;;;;;;101.30;59.08;;;4.20;99.90;;;;;;5134010;27;20089;-81
2022/01/19 11:27:04;;;;;;;99.53;58.55;;;4.20;99.90;;;;;;5134392;27;20094;-81
2022/01/19 11:29:31;;;;;;;100.13;59.08;;;4.20;99.90;;;;;;5134348;27;20074;-78
2022/01/19 11:31:58;;;;;;;99.65;60.65;;;4.20;99.90;;;;;;5132274;27;20695;-76
2022/01/19 11:34:45;;;;;;;93.28;58.35;;;4.20;99.90;;;;;;5134150;27;20053;-81
2022/01/19 11:37:11;;;;;;;93.15;58.08;;;4.30;99.90;;;;;;5132587;27;20047;-74
2022/01/19 11:39:57;;;;;;;96.25;58.03;;;4.20;99.90;;;;;;5133781;27;20119;-73
2022/01/19 11:42:23;;;;;;;94.30;59.30;;;4.30;99.90;;;;;;5133816;27;20126;-81
2022/01/19 11:44:51;;;;;;;91.88;58.42;;;4.30;99.90;;;;;;5132771;27;20054;-79
2022/01/19 11:47:23;;;;;;;93.20;58.78;;;4.30;99.90;;;;;;5131500;27;20108;-78
2022/01/19 11:50:03;;;;;;;89.72;57.83;;;4.20;99.90;;;;;;5133353;27;20047;-80
2022/01/19 11:52:38;;;;;;;90.30;57.58;;;4.20;99.90;;;;;;5133241;27;20096;-81
2022/01/19 11:55:24;;;;;;;94.63;58.90;;;4.20;99.90;;;;;;5133116;27;20093;-77
2022/01/19 11:58:13;;;;;;;92.28;58.97;;;4.20;99.90;;;;;;5131936;27;20035;-79
2022/01/19 12:00:40;;;;;;;90.65;59.17;;;4.20;99.90;;;;;;5132530;27;20380;-73
2022/01/19 12:03:22;;;;;;;89.57;57.55;;;4.30;99.90;;;;;;5132958;27;20047;-79
2022/01/19 12:05:51;;;;;;;93.00;59.85;;;4.20;99.90;;;;;;5132950;27;20050;-81
2022/01/19 12:08:22;;;;;;;91.28;59.10;;;4.20;99.90;;;;;;5132304;27;20039;-81
2022/01/19 12:10:50;;;;;;;94.20;59.05;;;4.30;99.90;;;;;;5132769;27;20065;-81
2022/01/19 12:16:17;;;;;;;;;;;4.30;99.90;;;;;;5132754;27;20486;-76
2022/01/19 12:18:54;;;;;;;92.88;60.58;;;4.20;99.90;;;;;;5132448;27;20371;-78
2022/01/19 12:21:32;;;;;;;90.95;59.78;;;4.20;99.90;;;;;;5132585;27;20484;-82
2022/01/19 12:24:18;;;;;;;91.95;60.20;;;4.20;99.90;;;;;;5147656;27;20043;-74
2022/01/19 12:27:04;;;;;;;91.18;60.30;;;4.20;99.90;;;;;;5142759;27;20046;-74
2022/01/19 12:29:33;;;;;;;93.80;61.50;;;4.20;99.90;;;;;;5132744;27;20039;-79
2022/01/19 12:32:00;;;;;;;95.32;61.00;;;4.20;99.90;;;;;;5135416;27;20039;-80
2022/01/19 12:34:26;;;;;;;90.75;60.30;;;4.30;99.90;;;;;;5138829;27;20095;-80
2022/01/19 12:36:56;;;;;;;89.63;59.63;;;4.30;99.90;;;;;;5131159;27;20384;-77
2022/01/19 12:39:28;;;;;;;89.37;60.03;;;4.30;99.90;;;;;;5131974;27;20039;-79
2022/01/19 12:42:01;;;;;;;92.53;58.90;;;4.40;99.90;;;;;;5131706;27;20299;-80
2022/01/19 12:44:58;;;;;;;90.20;60.42;;;4.40;99.90;;;;;;5131321;27;20404;-80
2022/01/19 12:47:24;;;;;;;85.53;58.55;;;4.40;99.90;;;;;;5131757;27;20051;-80
2022/01/19 12:49:52;;;;;;;85.65;58.70;;;4.50;99.90;;;;;;5131400;27;20035;-79
2022/01/19 12:52:19;;;;;;;87.03;60.28;;;4.50;99.90;;;;;;5130852;27;20050;-79
2022/01/19 12:54:46;;;;;;;85.20;57.33;;;4.50;99.90;;;;;;5130819;27;20055;-73
2022/01/19 12:57:15;;;;;;;79.68;57.05;;;4.50;99.90;;;;;;5131860;27;20053;-80
2022/01/19 12:59:43;;;;;;;86.22;58.95;;;4.50;99.90;;;;;;5129705;27;20043;-73
2022/01/19 13:02:13;;;;;;;81.57;59.35;;;4.60;99.90;;;;;;5132102;27;20035;-80
2022/01/19 13:04:41;;;;;;;85.75;59.17;;;4.50;99.90;;;;;;5135650;27;20047;-75
2022/01/19 13:07:18;;;;;;;84.50;57.22;;;4.50;99.90;;;;;;5134748;27;20049;-81
2022/01/19 13:10:39;;;;;;;80.47;57.15;;;4.50;99.90;;;;;;5127337;27;20035;-75
2022/01/19 13:13:09;;;;;;;84.57;58.72;;;4.50;99.90;;;;;;5130358;27;20744;-81
2022/01/19 13:15:43;;;;;;;85.85;58.38;;;4.50;99.90;;;;;;5130850;27;20104;-80
2022/01/19 13:18:14;;;;;;;86.60;60.95;;;4.50;99.90;;;;;;5130813;27;20046;-80
2022/01/19 13:20:54;;;;;;;94.07;61.72;;;4.50;99.90;;;;;;5127977;27;20221;-81
2022/01/19 13:23:20;;;;;;;87.10;60.08;;;4.50;99.90;;;;;;5128290;27;20039;-76
2022/01/19 13:25:58;;;;;;;89.68;60.30;;;4.60;99.90;;;;;;5131405;27;20041;-80
2022/01/19 13:28:26;;;;;;;90.35;60.88;;;4.50;99.90;;;;;;5129960;27;20053;-81
2022/01/19 13:30:56;;;;;;;91.05;61.50;;;4.50;99.90;;;;;;5131646;27;20422;-79
2022/01/19 13:33:23;;;;;;;89.25;60.45;;;4.50;99.90;;;;;;5133959;27;20062;-81
2022/01/19 13:35:58;;;;;;;87.28;60.00;;;4.50;99.90;;;;;;5133678;27;20039;-74
2022/01/19 13:38:26;;;;;;;89.10;60.33;;;4.50;99.90;;;;;;5132544;27;20076;-81
2022/01/19 13:41:05;;;;;;;91.97;62.85;;;4.50;99.90;;;;;;5132880;27;20407;-76
2022/01/19 13:43:33;;;;;;;94.15;62.05;;;4.50;99.90;;;;;;5131380;27;20035;-80
2022/01/19 13:46:12;;;;;;;89.43;59.22;;;4.60;99.90;;;;;;5133453;27;20123;-79
2022/01/19 13:48:39;;;;;;;89.57;61.00;;;4.50;99.90;;;;;;5134487;27;20105;-81
2022/01/19 13:51:06;;;;;;;87.82;59.45;;;4.60;99.90;;;;;;5132400;27;20055;-80
2022/01/19 13:53:40;;;;;;;88.60;59.35;;;4.60;99.90;;;;;;5134009;27;20165;-80
2022/01/19 13:56:10;;;;;;;88.90;60.70;;;4.60;99.90;;;;;;5133151;27;20399;-80
2022/01/19 13:58:48;;;;;;;84.15;57.80;;;4.60;99.90;;;;;;5133995;27;20083;-80
2022/01/19 14:01:22;;;;;;;88.00;58.30;;;4.60;99.90;;;;;;5133438;27;20432;-80
2022/01/19 14:03:48;;;;;;;85.10;58.17;;;4.70;99.90;;;;;;5134180;27;20043;-80
2022/01/19 14:06:27;;;;;;;84.55;57.28;;;4.70;99.90;;;;;;5133096;27;20046;-78
2022/01/19 14:09:03;;;;;;;83.20;56.65;;;4.70;99.90;;;;;;5133748;27;20081;-74
2022/01/19 14:11:29;;;;;;;81.88;57.05;;;4.80;99.90;;;;;;5132616;27;20043;-80